MAPA DE AEROPUERTO

INFORMACIÓN METAR y TAF

METAR FOR GCFV
ADDS - METARS form results

(2049 UTC 27 January 2021)
Data provider http://aviationweather.gov/metar/data/
 
METAR text: GCFV 272030Z 01004KT 9000 NSC 18/16 Q1021
Conditions at: GCFV (FUERTEVENTURA AR, ES) observed 2030 UTC 27 January 2021
Temperature: 18.0°C (64°F)
Dewpoint: 16.0°C (61°F) [RH = 88%]
Pressure (altimeter): 30.15 inches Hg (1021.0 mb)
Winds: from the N (10 degrees) at 5 MPH (4 knots; 2.1 m/s)
Visibility: 6 miles ( 9 km)
Ceiling: at least 12,000 feet AGL
Clouds: sky clear below 12,000 feet AGL
Weather: no significant weather observed at this time

METAR text: GCFV 272000Z 36004KT 9000 NSC 18/16 Q1021
Conditions at: GCFV (FUERTEVENTURA AR, ES) observed 2000 UTC 27 January 2021
Temperature: 18.0°C (64°F)
Dewpoint: 16.0°C (61°F) [RH = 88%]
Pressure (altimeter): 30.15 inches Hg (1021.0 mb)
Winds: from the N (360 degrees) at 5 MPH (4 knots; 2.1 m/s)
Visibility: 6 miles ( 9 km)
Ceiling: at least 12,000 feet AGL
Clouds: sky clear below 12,000 feet AGL
Weather: no significant weather observed at this time

Forecast for: GCFV (FUERTEVENTURA AR, ES)
Text: TAF GCFV 272000Z 2721/2821 01006KT 9999 FEW015 TX26/2814Z TN18/2807Z
Forecast period: 2100 UTC 27 January 2021 to 2100 UTC 28 January 2021
Forecast type: FROM: standard forecast or significant change
Winds: from the N (10 degrees) at 7 MPH (6 knots; 3.1 m/s)
Visibility: 6 or more miles (10+ km)
Ceiling: at least 12,000 feet AGL
Clouds: few clouds at 1500 feet AGL
Weather: no significant weather forecast for this period
Text: PROB30
Forecast period: 2100 to 2300 UTC 27 January 2021
Forecast type: TEMPORARY: The following changes expected for less than half the time period
Visibility: missing
Ceiling: 1000 feet AGL
Clouds: broken clouds at 1000 feet AGL
Weather: no significant weather forecast for this period
Text: TEMPO 2721/2723 BKN010
Forecast period: 1000 to 1800 UTC 28 January 2021
Forecast type: TEMPORARY: The following changes expected for less than half the time period
Winds: from the S (180 degrees) at 12 MPH (10 knots; 5.1 m/s)
Visibility: missing
Ceiling: unknown
Clouds: missing
Weather: no significant weather forecast for this period